Aeroporto :
LOGIN :

Iscrizione | Disclaimer

   EN    FR    IT 

 










Sommario :    VFR   VFR Marginale   IFR   IFR Intensivo   IFR Molto Intensivo
Visibilità : 
Base nubi : 
>= 8 km
>= 3000ft
5 / 8 km
1000 / 3000 ft
1500m / 5 km
500 / 1000 ft
800 / 1500m
200 / 500 ft
< 800m
< 200 ft
Simboli :   Temporali  Nebbia  Neve Forte  Precipitazioni Forti  Vento > 20 kt
SIGMETs :   Varie  Temporali  Ghiacco  Turbolenza  Onda orograficha  Ceneri Vulcaniche






- Altitudine del aeroporto : 464 ft
- Codice IATA : EVX


LFOE - Evreux

ULTIMO METAR :
  • 150530Z AUTO 26006KT 9999 OVC006 18/17 Q1015 TEMPO 4000 -RA OVC004

METARs OBSOLETI :
  • 150500Z AUTO 25005KT 9999 OVC007 18/17 Q1015 TEMPO 4000 -RA OVC004
  • 150430Z AUTO 26005KT 9999 OVC007 19/17 Q1015 TEMPO 4000 -RA OVC004
  • 150400Z AUTO 25006KT 9999 OVC007 19/17 Q1015 TEMPO 4000 -RA OVC004
  • 150330Z AUTO 26006KT 9999 BKN008 OVC020 19/17 Q1015 TEMPO 4000 -RA OVC004
  • 150300Z AUTO 26004KT 9999 OVC021 19/17 Q1015 TEMPO 4000 -RA OVC004

TAF TAF LFOE
Valido dal 15 a 03 ore il 16 a 03 ore UTC


150200Z 1503/1603 25004KT 9999 BKN006
TEMPO 1503/1508 4000 -RA OVC004
BECMG 1509/1511 BKN014
BECMG 1511/1513 VRB02KT BKN020
BECMG 1519/1521 03006KT
BECMG 1600/1603 BKN004



MetMap, La meteo Aeronautica in un colpo d'occhio ! - Copyright ORBIFLY Dicembre 2007 - Disclaimer

ORBIFLY MET'MAP TEAM :

Programmazione e sviluppo : Alexandra Zaïnal
Concezione : Baudouin d'Aumeries
Aiuto per la programmazione : Marc-Olivier Méhu
Supporto tecnico e logistico : Manuel Goepfert
Aiuto per la traduzione : Arnaldo La Scala

Contatto : metmap@orbifly.com




FONTI E CREDITI :

   NOAA